createdAt,value
2022-09-15T00:00:31.154Z,55.40
2022-09-15T00:02:58.090Z,64.20
2022-09-15T00:05:25.051Z,51.40
2022-09-15T00:07:51.894Z,50.67
2022-09-15T00:10:18.931Z,44.20
2022-09-15T00:12:45.874Z,63.97
2022-09-15T00:15:14.873Z,51.22
2022-09-15T00:17:43.143Z,44.42
2022-09-15T00:20:10.625Z,46.88
2022-09-15T00:22:37.801Z,50.85
2022-09-15T00:25:05.095Z,44.53
2022-09-15T00:27:33.539Z,44.25
2022-09-15T00:30:00.969Z,49.33
2022-09-15T00:32:28.067Z,44.67
2022-09-15T00:34:54.928Z,46.55
2022-09-15T00:37:22.610Z,51.78
2022-09-15T00:39:50.045Z,41.17
2022-09-15T00:42:18.807Z,41.90
2022-09-15T00:44:52.184Z,35.33
2022-09-15T00:47:22.859Z,37.33
2022-09-15T00:49:58.419Z,48.03
2022-09-15T00:52:43.185Z,43.30
2022-09-15T00:55:17.149Z,44.95
2022-09-15T00:57:43.928Z,52.85
2022-09-15T01:00:14.026Z,42.40
2022-09-15T01:02:43.927Z,46.78
2022-09-15T01:05:13.015Z,40.80
2022-09-15T01:07:52.085Z,42.20
2022-09-15T01:10:33.244Z,32.20
2022-09-15T01:13:04.897Z,36.78
2022-09-15T01:15:44.051Z,41.25
2022-09-15T01:18:49.278Z,34.15
2022-09-15T01:21:40.819Z,40.97
2022-09-15T01:24:19.093Z,44.15
2022-09-15T01:26:52.739Z,38.45
2022-09-15T01:29:41.367Z,41.25
2022-09-15T01:32:41.834Z,37.78
2022-09-15T01:35:33.815Z,36.95
2022-09-15T01:38:25.621Z,30.45
2022-09-15T01:41:09.557Z,29.45
2022-09-15T01:43:41.580Z,28.02
2022-09-15T01:46:09.264Z,30.35
2022-09-15T01:48:36.550Z,31.17
2022-09-15T01:51:04.162Z,30.10
2022-09-15T01:53:30.984Z,31.75
2022-09-15T01:56:05.320Z,35.78
2022-09-15T01:58:33.033Z,31.38
2022-09-15T02:01:07.650Z,27.95
2022-09-15T02:03:50.843Z,33.08
2022-09-15T02:06:45.629Z,24.58
2022-09-15T02:09:18.514Z,30.02
2022-09-15T02:12:12.685Z,28.23
2022-09-15T02:15:03.422Z,29.30
2022-09-15T02:17:32.725Z,24.48
2022-09-15T02:20:23.699Z,28.17
2022-09-15T02:22:57.333Z,23.15
2022-09-15T02:25:32.803Z,32.60
2022-09-15T02:28:07.233Z,32.05
2022-09-15T02:30:36.973Z,28.33
2022-09-15T02:33:06.835Z,22.60
2022-09-15T02:35:35.309Z,27.52
2022-09-15T02:38:03.654Z,29.77
2022-09-15T02:40:31.577Z,20.70
2022-09-15T02:43:03.450Z,24.13
2022-09-15T02:45:31.248Z,22.98
2022-09-15T02:47:58.872Z,28.67
2022-09-15T02:50:26.745Z,30.05
2022-09-15T02:52:57.483Z,32.28
2022-09-15T02:55:29.109Z,28.08
2022-09-15T02:57:57.120Z,45.70
2022-09-15T03:00:24.824Z,29.52
2022-09-15T03:02:53.576Z,27.63
2022-09-15T03:05:23.120Z,26.70
2022-09-15T03:07:50.185Z,31.75
2022-09-15T03:10:17.455Z,35.50
2022-09-15T03:12:47.327Z,36.90
2022-09-15T03:15:16.489Z,38.58
2022-09-15T03:17:44.758Z,42.80
2022-09-15T03:20:14.131Z,39.67
2022-09-15T03:22:41.015Z,51.30
2022-09-15T03:25:08.428Z,39.85
2022-09-15T03:27:35.692Z,39.47
2022-09-15T03:30:03.053Z,42.95
2022-09-15T03:32:29.921Z,39.60
2022-09-15T03:34:58.599Z,34.72
2022-09-15T03:37:26.375Z,33.88
2022-09-15T03:39:53.409Z,32.78
2022-09-15T03:42:20.517Z,31.63
2022-09-15T03:44:47.615Z,32.78
2022-09-15T03:47:14.903Z,26.48
2022-09-15T03:49:41.822Z,31.52
2022-09-15T03:52:08.762Z,34.65
2022-09-15T03:54:35.593Z,27.55
2022-09-15T03:57:03.521Z,39.15
2022-09-15T03:59:30.388Z,74.90
2022-09-15T04:01:57.351Z,70.60
2022-09-15T04:04:24.328Z,42.03
2022-09-15T04:06:51.211Z,52.63
2022-09-15T04:09:20.246Z,42.78
2022-09-15T04:11:47.917Z,44.90
2022-09-15T04:14:14.727Z,40.92
2022-09-15T04:16:41.689Z,35.15
2022-09-15T04:19:08.620Z,32.90
2022-09-15T04:21:35.675Z,37.97
2022-09-15T04:24:04.829Z,35.60
2022-09-15T04:26:35.092Z,30.90
2022-09-15T04:29:04.478Z,37.30
2022-09-15T04:31:33.135Z,44.75
2022-09-15T04:34:00.440Z,39.33
2022-09-15T04:36:28.469Z,34.33
2022-09-15T04:38:55.917Z,35.90
2022-09-15T04:41:23.900Z,35.97
2022-09-15T04:43:51.100Z,35.75
2022-09-15T04:46:18.792Z,33.55
2022-09-15T04:48:46.464Z,30.98
2022-09-15T04:51:16.436Z,36.65
2022-09-15T04:53:43.424Z,33.90
2022-09-15T04:56:18.497Z,30.58
2022-09-15T04:58:48.327Z,35.40
2022-09-15T05:01:17.456Z,38.45
2022-09-15T05:03:45.274Z,35.13
2022-09-15T05:06:14.446Z,29.83
2022-09-15T05:08:41.698Z,29.30
2022-09-15T05:11:11.247Z,26.55
2022-09-15T05:13:39.057Z,33.70
2022-09-15T05:16:12.127Z,27.80
2022-09-15T05:18:40.170Z,32.13
2022-09-15T05:21:08.454Z,31.92
2022-09-15T05:23:36.183Z,30.05
2022-09-15T05:26:05.842Z,31.42
2022-09-15T05:28:34.302Z,38.47
2022-09-15T05:31:01.205Z,34.95
2022-09-15T05:33:28.151Z,31.63
2022-09-15T05:35:57.562Z,28.02
2022-09-15T05:38:25.490Z,30.98
2022-09-15T05:40:52.472Z,28.33
2022-09-15T05:43:19.381Z,27.70
2022-09-15T05:45:54.638Z,30.17
2022-09-15T05:48:21.752Z,28.00
2022-09-15T05:50:50.050Z,34.88
2022-09-15T05:53:17.240Z,27.77
2022-09-15T05:55:44.121Z,27.83
2022-09-15T05:58:11.373Z,25.17
2022-09-15T06:00:38.437Z,29.98
2022-09-15T06:03:05.434Z,28.80
2022-09-15T06:05:32.430Z,29.15
2022-09-15T06:07:59.312Z,32.42
2022-09-15T06:10:26.318Z,33.03
2022-09-15T06:12:53.958Z,28.92
2022-09-15T06:15:21.827Z,36.25
2022-09-15T06:17:48.791Z,33.33
2022-09-15T06:20:15.880Z,32.75
2022-09-15T06:22:42.735Z,28.23
2022-09-15T06:25:09.670Z,32.72
2022-09-15T06:27:36.547Z,29.98
2022-09-15T06:30:03.607Z,34.78
2022-09-15T06:32:30.532Z,33.03
2022-09-15T06:34:57.375Z,36.33
2022-09-15T06:37:24.255Z,32.30
2022-09-15T06:39:51.238Z,41.45
2022-09-15T06:42:18.143Z,34.88
2022-09-15T06:44:45.023Z,35.25
2022-09-15T06:47:15.383Z,42.08
2022-09-15T06:49:42.318Z,36.50
2022-09-15T06:52:09.182Z,36.20
2022-09-15T06:54:36.022Z,32.97
2022-09-15T06:57:02.988Z,36.85
2022-09-15T06:59:29.903Z,32.72
2022-09-15T07:01:57.555Z,35.95
2022-09-15T07:04:25.611Z,34.67
2022-09-15T07:06:52.511Z,36.38
2022-09-15T07:09:19.685Z,37.42
2022-09-15T07:11:47.205Z,55.03
2022-09-15T07:14:14.102Z,33.13
2022-09-15T07:16:40.999Z,34.75
2022-09-15T07:19:08.134Z,31.55
2022-09-15T07:21:35.531Z,38.17
2022-09-15T07:24:06.834Z,34.13
2022-09-15T07:26:34.691Z,41.67
2022-09-15T07:29:04.323Z,41.92
2022-09-15T07:31:33.053Z,40.40
2022-09-15T07:34:01.168Z,41.67
2022-09-15T07:36:28.548Z,40.67
2022-09-15T07:38:55.509Z,42.47
2022-09-15T07:41:27.852Z,47.58
2022-09-15T07:43:57.302Z,43.35
2022-09-15T07:46:25.354Z,40.47
2022-09-15T07:48:56.483Z,46.10
2022-09-15T07:51:24.372Z,39.92
2022-09-15T07:53:52.335Z,44.35
2022-09-15T07:56:20.607Z,43.10
2022-09-15T07:58:48.369Z,32.17
2022-09-15T08:01:16.230Z,39.03
2022-09-15T08:03:46.419Z,38.13
2022-09-15T08:06:14.176Z,39.03
2022-09-15T08:08:44.153Z,39.45
2022-09-15T08:11:18.495Z,34.92
2022-09-15T08:13:47.359Z,32.97
2022-09-15T08:16:16.945Z,30.25
2022-09-15T08:18:44.433Z,29.90
2022-09-15T08:21:14.985Z,28.52
2022-09-15T08:23:42.280Z,30.98
2022-09-15T08:26:14.179Z,28.13
2022-09-15T08:28:42.207Z,29.30
2022-09-15T08:31:11.585Z,24.10
2022-09-15T08:33:43.329Z,22.33
2022-09-15T08:36:13.409Z,27.65
2022-09-15T08:38:41.983Z,25.27
2022-09-15T08:41:19.338Z,18.15
2022-09-15T08:43:58.067Z,23.17
2022-09-15T08:46:36.683Z,30.02
2022-09-15T08:49:51.010Z,24.00
2022-09-15T08:52:43.109Z,15.35
2022-09-15T08:55:39.178Z,17.05
2022-09-15T08:58:06.497Z,13.30
2022-09-15T09:00:33.883Z,13.73
2022-09-15T09:03:09.683Z,18.25
2022-09-15T09:06:04.460Z,13.43
2022-09-15T09:09:18.969Z,14.52
2022-09-15T09:11:48.727Z,13.20
2022-09-15T09:14:18.352Z,18.77
2022-09-15T09:17:23.662Z,17.00
2022-09-15T09:20:27.697Z,17.95
2022-09-15T09:22:55.490Z,14.88
2022-09-15T09:25:27.568Z,16.73
2022-09-15T09:27:56.815Z,12.93
2022-09-15T09:30:24.866Z,17.77
2022-09-15T09:33:15.348Z,20.42
2022-09-15T09:35:43.804Z,11.70
2022-09-15T09:38:11.527Z,12.77
2022-09-15T09:40:41.799Z,15.88
2022-09-15T09:43:09.010Z,11.48
2022-09-15T09:45:36.241Z,13.23
2022-09-15T09:48:12.121Z,17.27
2022-09-15T09:50:45.405Z,16.13
2022-09-15T09:53:33.850Z,14.18
2022-09-15T09:56:24.912Z,10.77
2022-09-15T09:58:52.570Z,11.93
2022-09-15T10:01:21.873Z,21.15
2022-09-15T10:03:48.759Z,10.73
2022-09-15T10:06:22.699Z,11.20
2022-09-15T10:09:04.022Z,9.23
2022-09-15T10:11:49.088Z,7.35
2022-09-15T10:14:30.482Z,11.85
2022-09-15T10:16:58.730Z,6.93
2022-09-15T10:19:27.087Z,11.32
2022-09-15T10:21:54.244Z,13.07
2022-09-15T10:24:24.872Z,6.47
2022-09-15T10:26:51.937Z,15.00
2022-09-15T10:29:19.297Z,13.07
2022-09-15T10:31:46.747Z,12.00
2022-09-15T10:34:30.734Z,7.97
2022-09-15T10:37:13.879Z,11.27
2022-09-15T10:39:56.053Z,7.63
2022-09-15T10:42:30.530Z,11.82
2022-09-15T10:45:22.623Z,10.00
2022-09-15T10:48:03.351Z,11.82
2022-09-15T10:50:45.504Z,12.45
2022-09-15T10:53:17.775Z,8.43
2022-09-15T10:56:06.926Z,8.90
2022-09-15T10:58:52.786Z,13.43
2022-09-15T11:01:29.266Z,9.32
2022-09-15T11:04:30.265Z,8.23
2022-09-15T11:07:23.578Z,6.45
2022-09-15T11:10:26.641Z,9.52
2022-09-15T11:13:28.245Z,13.35
2022-09-15T11:15:55.411Z,9.88
2022-09-15T11:18:44.237Z,9.35
2022-09-15T11:21:22.272Z,5.78
2022-09-15T11:24:00.476Z,10.15
2022-09-15T11:26:35.531Z,7.85
2022-09-15T11:29:19.070Z,10.38
2022-09-15T11:31:50.371Z,7.68
2022-09-15T11:34:39.318Z,7.90
2022-09-15T11:37:17.240Z,7.25
2022-09-15T11:39:57.448Z,10.23
2022-09-15T11:42:46.727Z,5.63
2022-09-15T11:45:21.011Z,9.52
2022-09-15T11:47:51.384Z,8.05
2022-09-15T11:50:25.102Z,13.15
2022-09-15T11:52:57.701Z,10.30
2022-09-15T11:55:40.595Z,11.02
2022-09-15T11:58:22.151Z,7.93
2022-09-15T12:01:07.914Z,8.82
2022-09-15T12:03:48.011Z,9.75
2022-09-15T12:06:21.873Z,9.68
2022-09-15T12:09:01.231Z,12.45
2022-09-15T12:11:31.091Z,10.20
2022-09-15T12:13:59.945Z,7.22
2022-09-15T12:16:27.306Z,10.32
2022-09-15T12:18:59.059Z,4.95
2022-09-15T12:21:55.407Z,14.50
2022-09-15T12:24:46.001Z,9.18
2022-09-15T12:27:17.853Z,12.13
2022-09-15T12:29:49.111Z,9.55
2022-09-15T12:32:30.105Z,6.32
2022-09-15T12:35:01.372Z,10.52
2022-09-15T12:37:58.386Z,14.75
2022-09-15T12:40:26.824Z,20.17
2022-09-15T12:42:54.011Z,7.93
2022-09-15T12:45:27.464Z,8.50
2022-09-15T12:48:14.449Z,6.07
2022-09-15T12:50:43.137Z,7.85
2022-09-15T12:53:22.185Z,4.47
2022-09-15T12:55:52.634Z,10.45
2022-09-15T12:58:39.316Z,5.43
2022-09-15T13:01:26.884Z,8.57
2022-09-15T13:03:55.350Z,6.75
2022-09-15T13:06:34.243Z,3.80
2022-09-15T13:09:07.495Z,7.75
2022-09-15T13:11:36.566Z,7.63
2022-09-15T13:14:06.918Z,10.63
2022-09-15T13:16:53.829Z,9.43
2022-09-15T13:19:25.958Z,7.38
2022-09-15T13:21:57.582Z,10.80
2022-09-15T13:24:54.520Z,9.85
2022-09-15T13:27:36.490Z,10.23
2022-09-15T13:30:12.596Z,10.30
2022-09-15T13:32:52.363Z,7.13
2022-09-15T13:35:26.961Z,16.35
2022-09-15T13:38:16.673Z,8.88
2022-09-15T13:41:03.224Z,8.75
2022-09-15T13:43:40.142Z,10.15
2022-09-15T13:46:12.625Z,6.32
2022-09-15T13:48:50.386Z,8.98
2022-09-15T13:51:22.598Z,5.50
2022-09-15T13:53:57.176Z,7.97
2022-09-15T13:56:28.457Z,5.97
2022-09-15T13:59:08.848Z,4.95
2022-09-15T14:01:42.535Z,16.50
2022-09-15T14:04:19.340Z,7.57
2022-09-15T14:06:49.046Z,11.07
2022-09-15T14:09:19.746Z,4.47
2022-09-15T14:11:53.215Z,7.82
2022-09-15T14:14:42.551Z,6.25
2022-09-15T14:17:29.532Z,11.77
2022-09-15T14:19:59.203Z,6.35
2022-09-15T14:22:32.897Z,8.15
2022-09-15T14:25:08.613Z,6.53
2022-09-15T14:27:36.873Z,7.45
2022-09-15T14:30:09.084Z,5.50
2022-09-15T14:32:44.208Z,7.28
2022-09-15T14:35:19.790Z,3.70
2022-09-15T14:37:56.825Z,7.28
2022-09-15T14:40:31.100Z,7.38
2022-09-15T14:42:58.445Z,5.97
2022-09-15T14:45:57.263Z,11.93
2022-09-15T14:48:27.965Z,7.47
2022-09-15T14:51:02.750Z,8.35
2022-09-15T14:53:32.641Z,5.75
2022-09-15T14:56:21.862Z,5.97
2022-09-15T14:58:54.680Z,8.95
2022-09-15T15:01:34.922Z,11.68
2022-09-15T15:04:22.254Z,6.05
2022-09-15T15:06:53.625Z,6.53
2022-09-15T15:09:47.087Z,8.25
2022-09-15T15:15:00.827Z,6.88
2022-09-15T15:17:39.780Z,3.35
2022-09-15T15:20:06.796Z,8.15
2022-09-15T15:22:34.443Z,5.45
2022-09-15T15:25:01.689Z,10.38
2022-09-15T15:27:35.099Z,8.07
2022-09-15T15:30:24.043Z,6.78
2022-09-15T15:32:51.255Z,4.53
2022-09-15T15:35:18.577Z,7.20
2022-09-15T15:37:45.720Z,5.72
2022-09-15T15:40:18.569Z,6.45
2022-09-15T15:42:59.380Z,6.85
2022-09-15T15:45:32.623Z,2.15
2022-09-15T15:48:02.576Z,5.22
2022-09-15T15:50:32.877Z,8.70
2022-09-15T15:53:00.907Z,9.35
2022-09-15T15:55:40.665Z,3.95
2022-09-15T15:58:09.540Z,12.73
2022-09-15T16:00:49.351Z,9.20
2022-09-15T16:03:17.531Z,12.00
2022-09-15T16:05:47.447Z,7.68
2022-09-15T16:08:31.336Z,9.38
2022-09-15T16:11:00.646Z,12.50
2022-09-15T16:13:27.586Z,6.35
2022-09-15T16:16:00.244Z,4.43
2022-09-15T16:18:28.339Z,8.52
2022-09-15T16:20:55.416Z,6.85
2022-09-15T16:23:25.118Z,4.82
2022-09-15T16:26:02.939Z,8.10
2022-09-15T16:28:30.203Z,6.88
2022-09-15T16:30:57.339Z,6.40
2022-09-15T16:33:25.132Z,6.55
2022-09-15T16:36:03.753Z,8.70
2022-09-15T16:38:31.622Z,11.77
2022-09-15T16:40:58.684Z,7.55
2022-09-15T16:43:26.191Z,7.00
2022-09-15T16:45:53.789Z,5.80
2022-09-15T16:48:20.749Z,10.30
2022-09-15T16:53:35.707Z,5.68
2022-09-15T16:56:02.929Z,8.85
2022-09-15T16:58:29.927Z,12.82
2022-09-15T17:00:57.154Z,7.55
2022-09-15T17:03:25.566Z,7.85
2022-09-15T17:05:54.662Z,13.68
2022-09-15T17:08:25.755Z,8.65
2022-09-15T17:10:53.517Z,13.57
2022-09-15T17:13:25.133Z,6.78
2022-09-15T17:15:55.469Z,7.78
2022-09-15T17:18:22.653Z,8.35
2022-09-15T17:20:50.471Z,7.32
2022-09-15T17:23:24.465Z,11.07
2022-09-15T17:25:53.458Z,9.88
2022-09-15T17:28:22.643Z,7.65
2022-09-15T17:33:42.340Z,7.35
2022-09-15T17:36:09.599Z,8.77
2022-09-15T17:38:36.616Z,8.30
2022-09-15T17:41:03.755Z,8.50
2022-09-15T17:43:32.252Z,8.40
2022-09-15T17:45:59.780Z,12.68
2022-09-15T17:48:26.715Z,6.97
2022-09-15T17:50:53.691Z,6.45
2022-09-15T17:53:28.139Z,10.98
2022-09-15T17:55:55.752Z,5.75
2022-09-15T17:58:23.519Z,12.02
2022-09-15T18:00:50.908Z,7.53
2022-09-15T18:03:28.019Z,8.30
2022-09-15T18:05:56.855Z,8.20
2022-09-15T18:08:24.004Z,7.53
2022-09-15T18:10:51.496Z,10.52
2022-09-15T18:13:21.839Z,11.00
2022-09-15T18:15:49.241Z,11.82
2022-09-15T18:18:21.928Z,9.23
2022-09-15T18:20:49.928Z,9.73
2022-09-15T18:23:20.959Z,9.10
2022-09-15T18:25:48.747Z,10.02
2022-09-15T18:28:16.568Z,11.52
2022-09-15T18:30:48.888Z,14.63
2022-09-15T18:33:26.066Z,9.27
2022-09-15T18:35:59.025Z,14.80
2022-09-15T18:38:26.371Z,9.77
2022-09-15T18:40:56.178Z,11.38
2022-09-15T18:43:27.857Z,8.80
2022-09-15T18:46:01.412Z,14.02
2022-09-15T18:48:28.713Z,8.23
2022-09-15T18:50:55.705Z,13.85
2022-09-15T18:53:22.881Z,9.10
2022-09-15T18:55:50.228Z,9.55
2022-09-15T18:58:19.228Z,9.07
2022-09-15T19:00:46.342Z,9.02
2022-09-15T19:03:14.409Z,9.85
2022-09-15T19:05:41.986Z,8.10
2022-09-15T19:08:09.387Z,11.38
2022-09-15T19:10:38.388Z,8.60
2022-09-15T19:13:05.444Z,23.52
2022-09-15T19:15:34.609Z,6.70
2022-09-15T19:18:02.203Z,11.60
2022-09-15T19:20:29.426Z,10.82
2022-09-15T19:22:57.524Z,10.02
2022-09-15T19:25:24.360Z,8.20
2022-09-15T19:27:51.332Z,9.55
2022-09-15T19:30:18.206Z,13.80
2022-09-15T19:32:45.111Z,7.90
2022-09-15T19:35:12.747Z,14.85
2022-09-15T19:37:41.166Z,7.65
2022-09-15T19:40:11.048Z,10.65
2022-09-15T19:42:39.907Z,13.15
2022-09-15T19:45:07.975Z,10.48
2022-09-15T19:47:35.770Z,12.05
2022-09-15T19:50:04.076Z,8.32
2022-09-15T19:52:31.287Z,14.20
2022-09-15T19:54:58.206Z,10.90
2022-09-15T19:57:25.606Z,12.65
2022-09-15T19:59:52.502Z,10.02
2022-09-15T20:02:20.144Z,9.75
2022-09-15T20:04:47.773Z,10.38
2022-09-15T20:07:14.887Z,12.38
2022-09-15T20:09:42.199Z,5.57
2022-09-15T20:12:09.648Z,12.35
2022-09-15T20:14:37.024Z,14.25
2022-09-15T20:17:04.319Z,7.18
2022-09-15T20:19:31.340Z,6.72
2022-09-15T20:21:58.631Z,9.90
2022-09-15T20:24:25.845Z,15.15
2022-09-15T20:26:53.402Z,12.60
2022-09-15T20:29:21.170Z,9.50
2022-09-15T20:31:48.361Z,10.95
2022-09-15T20:34:15.716Z,9.45
2022-09-15T20:36:43.574Z,7.57
2022-09-15T20:39:15.646Z,5.93
2022-09-15T20:41:45.287Z,10.45
2022-09-15T20:44:12.510Z,12.23
2022-09-15T20:46:39.757Z,9.93
2022-09-15T20:49:07.491Z,5.68
2022-09-15T20:51:34.555Z,11.63
2022-09-15T20:54:04.062Z,13.02
2022-09-15T20:56:32.818Z,12.25
2022-09-15T20:59:00.640Z,4.95
2022-09-15T21:01:34.402Z,6.53
2022-09-15T21:04:04.241Z,13.50
2022-09-15T21:06:31.672Z,6.68
2022-09-15T21:08:58.950Z,13.05
2022-09-15T21:11:27.167Z,11.45
2022-09-15T21:13:55.275Z,10.02
2022-09-15T21:16:25.708Z,8.85
2022-09-15T21:18:53.244Z,8.70
2022-09-15T21:21:25.522Z,7.82
2022-09-15T21:23:58.797Z,5.68
2022-09-15T21:26:27.827Z,7.90
2022-09-15T21:28:55.530Z,10.25
2022-09-15T21:31:26.227Z,9.90
2022-09-15T21:33:54.200Z,10.43
2022-09-15T21:36:26.055Z,11.52
2022-09-15T21:38:54.597Z,5.70
2022-09-15T21:41:23.339Z,6.22
2022-09-15T21:43:55.380Z,11.27
2022-09-15T21:46:24.931Z,8.35
2022-09-15T21:48:52.115Z,6.10
2022-09-15T21:51:24.278Z,7.30
2022-09-15T21:56:23.774Z,4.90
2022-09-15T21:58:50.879Z,15.00
2022-09-15T22:01:19.854Z,7.97
2022-09-15T22:03:51.881Z,3.25
2022-09-15T22:06:20.655Z,6.55
2022-09-15T22:08:47.947Z,4.28
2022-09-15T22:11:15.274Z,7.72
2022-09-15T22:13:44.174Z,7.57
2022-09-15T22:16:13.888Z,4.40
2022-09-15T22:18:50.301Z,5.82
2022-09-15T22:21:20.952Z,14.40
2022-09-15T22:23:49.261Z,5.28
2022-09-15T22:26:21.876Z,8.70
2022-09-15T22:28:49.165Z,6.50
2022-09-15T22:31:17.921Z,7.28
2022-09-15T22:33:45.645Z,7.72
2022-09-15T22:36:14.978Z,2.78
2022-09-15T22:38:42.507Z,7.50
2022-09-15T22:41:12.171Z,9.80
2022-09-15T22:43:40.102Z,5.68
2022-09-15T22:46:07.711Z,5.22
2022-09-15T22:48:36.687Z,7.57
2022-09-15T22:51:06.872Z,6.43
2022-09-15T22:53:34.206Z,8.73
2022-09-15T22:56:14.474Z,8.10
2022-09-15T22:58:44.390Z,7.20
2022-09-15T23:01:17.165Z,10.05
2022-09-15T23:03:47.592Z,7.57
2022-09-15T23:06:14.672Z,7.93
2022-09-15T23:08:41.522Z,8.23
2022-09-15T23:11:11.482Z,9.95
2022-09-15T23:13:38.771Z,4.40
2022-09-15T23:16:07.174Z,11.23
2022-09-15T23:18:34.921Z,8.00
2022-09-15T23:21:07.454Z,6.47
2022-09-15T23:23:39.796Z,9.25
2022-09-15T23:26:08.964Z,6.07
2022-09-15T23:28:36.519Z,11.88
2022-09-15T23:31:03.698Z,10.13
2022-09-15T23:33:34.378Z,11.63
2022-09-15T23:36:06.995Z,8.80
2022-09-15T23:38:38.177Z,6.35
2022-09-15T23:41:05.942Z,10.65
2022-09-15T23:43:33.359Z,13.85
2022-09-15T23:46:01.054Z,9.13
2022-09-15T23:48:28.315Z,9.90
2022-09-15T23:50:55.270Z,12.15
2022-09-15T23:53:22.238Z,12.63
2022-09-15T23:55:51.644Z,9.98
2022-09-15T23:58:18.855Z,11.75
